map of TMR home
TMR - Airport
Location
City:  Tamanrasset, Tamanrasset, Algeria
Name:Aguemar-Hadj Bey Akhamok
ICAO:DAAT
IATA:TMR

Details
Type:Airport (Aerodrome, Airfield)
Latitude:2248'40"N (22.811111)
Longitude:527'03"E (5.450833)
Elevation:4518 ft (1377 m)
Variation:0.80E (WMM2015v2 magnetic declination)
0.11 annual change
Runways:2
Longest:11811 × 148 ft (3600 × 45 m), paved

Time
Time Zone:UTC+1
Local Time:

Weather
METAR:DAAT 041400Z 32019KT CAVOK 20/// Q1017
TAF:DAAT 041100Z 0412/0512 29006KT CAVOK
BECMG 0413/0415 30016KT PROB40
TEMPO 0415/0418 34016G26KT
BECMG 0421/0424 04006KT

Related Locations
Nearby:
Farthest:EUA: 12329 mi / 19841 km
Eua [Kaufana], TO

Find:

   beyond  
but within

Other Information
Maps:
NOTAMs:
Links:
Sources:

  
  • flag of Algeria
  

Sectional Chart

Flight Planning
at skyvector.com

Satellite Image

Google Maps Satellite view

 

Copyright © 2004-2019 Karl L. Swartz. All rights reserved.
The Great Circle Mapper name and logo are trademarks of the Great Circle Mapper.
All other trademarks mentioned herein belong to their respective owners.
Please see credits for attibutions and further copyright information.

  Follow gcmap on Facebook Follow gcmap on Twitter GCmap on LinkedIn

hCard Microformat

Geo Microformat